Řízení letového provozu České republiky  
Aktualizace dat:  30.07.2016 11:03:30 UTC English version
   METEO Zobrazení stránky:  30.07.2016 11:04:53 UTC  
vysvětlivky
METAR EDDB 301050Z 20011KT 160V230 9999 FEW038 BKN060 21/14 Q1012 NOSIG=
METAR EDDC 301050Z VRB02KT 9999 SCT037 BKN090 23/14 Q1013 NOSIG=
METAR EDDE 301050Z 26013KT 9999 FEW040 22/13 Q1013 TEMPO 26015G25KT=
METAR EDDF 301050Z 26008KT 230V300 9999 BKN036 24/15 Q1013 NOSIG=
METAR EDDM 301050Z 28005KT 210V010 CAVOK 27/16 Q1015 NOSIG=
METAR EDDN 301050Z 26008KT 220V310 9999 SCT048 SCT069 25/15 Q1014 NOSIG=
METAR EDDP 301050Z 33005KT 290V100 9999 FEW030 FEW030CB BKN096 22/15 Q1012 TEMPO SHRA=
METAR EDDT 301050Z 24010KT 200V260 9999 FEW035 SCT070 BKN090 23/13 Q1011 NOSIG=
METAR EDQM 301050Z 22008KT 9999 BKN033 22/14 Q1015=
METAR EPBY 301030Z 28006KT 9999 FEW033TCU 23/17 Q1011 =
METAR EPGD 301030Z 24011KT 210V280 9999 FEW034 23/15 Q1010 =
METAR EPKK 301030Z 25008KT 220V280 9999 FEW046 25/16 Q1014 =
METAR EPKT 301030Z 21011KT 170V250 9999 FEW043TCU 25/15 Q1014 =
METAR EPLL 301030Z 23011KT 200V260 9999 SCT037 24/15 Q1012 =
METAR EPPO 301030Z 26007KT 220V280 9999 SCT030 24/15 Q1012 =
METAR EPRZ 301030Z 26004KT 190V310 9999 SCT040 26/16 Q1015 =
METAR EPWA 301030Z 26006KT 220V300 9999 SCT045 25/17 Q1012 NOSIG=
METAR EPWR 301030Z 30009KT 260V320 CAVOK 25/15 Q1013 =
METAR LHBP 301100Z 25009KT CAVOK 29/18 Q1015 NOSIG=
METAR LHSM 301015Z 18006KT 9999 FEW035 28/20 Q1016 NOSIG=
METAR LKCV 301000Z 28005KT 240V310 9999 SCT040 BKN080 25/14 Q1015 NOSIG=
METAR LKKB 301000Z 27009KT 9999 SCT048 BKN070 25/14 Q1014 NOSIG =
METAR LKKU NIL
METAR LKKV 301100Z 26008KT 220V290 9999 SCT043 22/13 Q1015 RMK REG QNH 1012=
METAR LKLN 301000Z AUTO 24010KT 200V330 9999 SCT047 25/15 Q1015=
METAR LKMT 301100Z 22009KT 190V250 9999 FEW033 25/18 Q1015 NOSIG RMK REG QNH 1012=
METAR LKNA 301000Z 16004KT 9999 SCT039 25/17 Q1016 NOSIG=
METAR LKPD 301000Z 26005KT 9999 FEW034 SCT120 25/15 Q1014 NOSIG =
METAR LKPR 301100Z 23012KT 130V270 CAVOK 25/13 Q1014 NOSIG RMK REG QNH 1012=
METAR LKTB 301100Z 18005KT 150V230 9999 FEW040TCU 27/17 Q1015 NOSIG RMK REG QNH 1012=
METAR LKVO NIL
METAR LOWI 301050Z VRB03KT 9999 FEW070 27/16 Q1015 NOSIG=
METAR LOWL 301050Z VRB02KT 9999 FEW050 27/16 Q1015 NOSIG=
METAR LOWS 301050Z VRB03KT 9999 FEW060 27/16 Q1016 NOSIG=
METAR LOWW 301050Z 02006KT 320V080 CAVOK 30/18 Q1015 NOSIG=
METAR LZIB 301100Z VRB04KT 9999 SCT049 29/16 Q1015 NOSIG=
METAR LZKZ 301100Z VRB02KT 9999 SCT046 26/16 Q1015 NOSIG=
METAR LZPP 301100Z 23005KT 150V270 9999 SCT047 28/17 Q1015=
METAR LZSL 301100Z 24007KT 190V280 9999 FEW042 SCT093 28/12 Q1015=
METAR LZTT 301100Z 29005KT 250V330 9999 BKN043 SCT096 24/10 Q1017 NOSIG=
METAR LZZI 301100Z VRB02KT 9999 FEW026 BKN086 23/18 Q1016=